Hauptseite
METAR-TAF:

METAR-TAF

Flughäfen :

Kirkwall, Schottland

Flughafen Kirkwall

Breite: 58-57N, Länge: 002-54W, Höhe: 21 m

Beobachtung

Neuester Wetterbericht von vor 15 Minuten, um 09:50 UTC
Wind 15 kt aus Süd/Südost
Temperatur 5°C
Luftfeuchtigkeit 70%
Luftdruck 1031 hPa
Sichtweite 10 km oder mehr
Aufgelockert bewölkt in der Höhe von 2200 ft

METAR: EGPA 250950Z 16015KT 9999 SCT022 05/00 Q1031

Zeit: 10:05 (10:05 UTC)

Prognose

Neuester Wetterbericht von vor 2 Stunden und 8 Minuten, um 07:57 UTC
Gültige Prognose vom 25 um 09 UTC bis 25 um 18 UTC
Wind 15 kt aus Süd/Südost
Sichtweite 10 km oder mehr
Aufgelockert bewölkt in der Höhe von 2500 ft

TAF: EGPA 250757Z 2509/2518 16015KT 9999 SCT025

Wetterbeobachtungen und Prognosen von mehr als 4000 Flughäfen (METAR und TAF Bericht).

Die verfügbaren Stationen werden durch gelbe und rote Markierungen auf der Karte dargestellt.

Führen Sie die Maus auf sie, um den Namen der Station zu sehen.

Darauf klicken, um die Beobachtung von Wetterbeobachtungen und Prognosen zu sehen.

Um die Karte zu ändern : klicken Sie auf den grünen Tasten mit einem schwarzen Kreuz Zum Vergrößern, auf den grünen Button mit einem Gedankenstrich zu verkleinern, oder auf die grünen Pfeile für benachbarte Karten.


METAR-TAF: